createdAt,value
2022-10-11T00:01:55.133Z,32.00
2022-10-11T00:04:24.528Z,31.90
2022-10-11T00:06:52.991Z,31.10
2022-10-11T00:09:21.301Z,31.20
2022-10-11T00:11:50.056Z,31.40
2022-10-11T00:14:18.489Z,30.40
2022-10-11T00:16:46.822Z,30.60
2022-10-11T00:19:13.833Z,30.90
2022-10-11T00:21:40.826Z,31.10
2022-10-11T00:24:08.033Z,31.60
2022-10-11T00:26:34.999Z,31.60
2022-10-11T00:29:01.884Z,31.30
2022-10-11T00:31:33.264Z,32.30
2022-10-11T00:34:02.375Z,32.50
2022-10-11T00:36:29.286Z,32.70
2022-10-11T00:38:56.340Z,32.70
2022-10-11T00:41:23.573Z,32.70
2022-10-11T00:44:34.557Z,33.40
2022-10-11T00:47:08.920Z,34.00
2022-10-11T00:49:38.623Z,34.10
2022-10-11T00:52:29.117Z,34.30
2022-10-11T00:54:58.293Z,34.30
2022-10-11T00:57:29.611Z,33.50
2022-10-11T00:59:56.589Z,33.60
2022-10-11T01:02:24.390Z,33.80
2022-10-11T01:05:05.604Z,33.60
2022-10-11T01:07:39.751Z,34.20
2022-10-11T01:10:06.897Z,34.40
2022-10-11T01:12:34.032Z,34.50
2022-10-11T01:15:29.881Z,34.30
2022-10-11T01:18:29.138Z,34.40
2022-10-11T01:20:58.841Z,34.30
2022-10-11T01:23:58.758Z,33.60
2022-10-11T01:26:59.898Z,33.30
2022-10-11T01:29:39.837Z,33.60
2022-10-11T01:32:44.226Z,33.80
2022-10-11T01:35:21.853Z,34.30
2022-10-11T01:38:00.604Z,34.40
2022-10-11T01:40:44.037Z,34.30
2022-10-11T01:43:11.158Z,35.00
2022-10-11T01:45:39.157Z,35.00
2022-10-11T01:48:12.152Z,35.10
2022-10-11T01:50:55.474Z,34.90
2022-10-11T01:53:29.697Z,35.40
2022-10-11T01:56:29.711Z,35.80
2022-10-11T01:59:08.373Z,35.40
2022-10-11T02:01:41.306Z,33.80
2022-10-11T02:04:43.182Z,34.10
2022-10-11T02:07:22.062Z,33.60
2022-10-11T02:10:05.609Z,33.20
2022-10-11T02:12:42.277Z,33.60
2022-10-11T02:15:11.763Z,33.50
2022-10-11T02:17:44.829Z,33.70
2022-10-11T02:20:18.250Z,33.80
2022-10-11T02:22:48.290Z,33.60
2022-10-11T02:25:20.078Z,33.40
2022-10-11T02:27:48.894Z,33.70
2022-10-11T02:30:16.856Z,33.90
2022-10-11T02:32:46.530Z,33.40
2022-10-11T02:35:14.377Z,32.80
2022-10-11T02:38:10.947Z,32.70
2022-10-11T02:40:41.668Z,32.70
2022-10-11T02:43:18.093Z,33.20
2022-10-11T02:46:05.948Z,33.60
2022-10-11T02:48:33.815Z,33.70
2022-10-11T02:51:00.784Z,33.50
2022-10-11T02:53:27.735Z,32.70
2022-10-11T02:55:55.649Z,32.90
2022-10-11T02:58:23.958Z,32.50
2022-10-11T03:00:50.933Z,32.30
2022-10-11T03:03:17.836Z,31.50
2022-10-11T03:05:44.855Z,31.00
2022-10-11T03:08:15.672Z,31.10
2022-10-11T03:10:43.235Z,30.60
2022-10-11T03:13:10.550Z,30.50
2022-10-11T03:15:38.955Z,30.20
2022-10-11T03:18:06.056Z,30.30
2022-10-11T03:20:33.594Z,30.70
2022-10-11T03:23:00.541Z,31.40
2022-10-11T03:25:28.157Z,32.10
2022-10-11T03:27:55.005Z,32.30
2022-10-11T03:30:21.907Z,32.50
2022-10-11T03:32:48.813Z,32.90
2022-10-11T03:35:15.963Z,32.70
2022-10-11T03:37:42.897Z,32.40
2022-10-11T03:40:10.822Z,32.40
2022-10-11T03:42:38.466Z,32.20
2022-10-11T03:45:08.401Z,31.90
2022-10-11T03:47:39.443Z,32.30
2022-10-11T03:50:08.409Z,32.30
2022-10-11T03:52:35.975Z,32.20
2022-10-11T03:55:03.069Z,31.90
2022-10-11T03:57:30.684Z,31.70
2022-10-11T03:59:57.909Z,31.70
2022-10-11T04:02:24.891Z,31.20
2022-10-11T04:04:51.811Z,31.50
2022-10-11T04:07:18.757Z,31.40
2022-10-11T04:09:45.787Z,31.10
2022-10-11T04:12:12.849Z,31.70
2022-10-11T04:14:40.649Z,31.60
2022-10-11T04:17:07.573Z,32.00
2022-10-11T04:19:35.955Z,31.80
2022-10-11T04:22:06.230Z,31.90
2022-10-11T04:24:33.181Z,32.00
2022-10-11T04:27:00.139Z,31.70
2022-10-11T04:29:32.164Z,30.90
2022-10-11T04:31:59.820Z,31.20
2022-10-11T04:34:26.822Z,31.50
2022-10-11T04:36:53.682Z,31.60
2022-10-11T04:39:21.035Z,30.90
2022-10-11T04:41:47.989Z,30.60
2022-10-11T04:44:14.935Z,30.90
2022-10-11T04:46:42.106Z,31.00
2022-10-11T04:49:09.041Z,31.00
2022-10-11T04:51:36.123Z,31.70
2022-10-11T04:54:03.103Z,32.20
2022-10-11T04:56:30.833Z,31.70
2022-10-11T04:58:57.824Z,31.00
2022-10-11T05:01:24.766Z,31.00
2022-10-11T05:03:51.751Z,31.10
2022-10-11T05:06:19.021Z,31.70
2022-10-11T05:08:45.975Z,32.50
2022-10-11T05:11:15.993Z,32.70
2022-10-11T05:13:44.775Z,32.60
2022-10-11T05:16:12.592Z,32.00
2022-10-11T05:18:40.524Z,30.90
2022-10-11T05:21:14.452Z,31.30
2022-10-11T05:23:41.388Z,31.40
2022-10-11T05:26:08.977Z,31.50
2022-10-11T05:28:36.144Z,31.60
2022-10-11T05:31:03.670Z,32.30
2022-10-11T05:33:30.571Z,32.20
2022-10-11T05:35:57.709Z,32.30
2022-10-11T05:38:24.875Z,32.10
2022-10-11T05:40:52.204Z,31.50
2022-10-11T05:43:19.248Z,31.40
2022-10-11T05:45:46.634Z,30.80
2022-10-11T05:48:13.557Z,31.40
2022-10-11T05:50:40.500Z,31.20
2022-10-11T05:53:07.740Z,31.90
2022-10-11T05:55:42.277Z,32.40
2022-10-11T05:58:13.263Z,32.80
2022-10-11T06:00:41.155Z,33.70
2022-10-11T06:03:11.493Z,34.00
2022-10-11T06:05:38.610Z,34.30
2022-10-11T06:08:06.753Z,34.20
2022-10-11T06:10:33.859Z,33.60
2022-10-11T06:13:00.947Z,33.50
2022-10-11T06:15:28.597Z,33.20
2022-10-11T06:17:56.136Z,33.70
2022-10-11T06:20:22.994Z,33.70
2022-10-11T06:22:49.888Z,34.00
2022-10-11T06:25:16.936Z,34.60
2022-10-11T06:27:44.029Z,34.40
2022-10-11T06:30:11.489Z,34.20
2022-10-11T06:32:38.433Z,33.30
2022-10-11T06:35:06.254Z,33.30
2022-10-11T06:37:33.221Z,33.80
2022-10-11T06:40:00.606Z,33.80
2022-10-11T06:42:27.528Z,34.20
2022-10-11T06:44:54.557Z,34.00
2022-10-11T06:47:21.425Z,34.00
2022-10-11T06:49:48.380Z,34.70
2022-10-11T06:52:15.351Z,34.70
2022-10-11T06:54:44.923Z,35.20
2022-10-11T06:57:12.193Z,35.00
2022-10-11T06:59:39.173Z,35.20
2022-10-11T07:02:06.140Z,35.00
2022-10-11T07:04:34.121Z,34.70
2022-10-11T07:07:01.127Z,34.90
2022-10-11T07:09:28.307Z,36.00
2022-10-11T07:11:55.372Z,36.30
2022-10-11T07:14:22.420Z,36.40
2022-10-11T07:16:49.348Z,36.10
2022-10-11T07:19:16.301Z,35.90
2022-10-11T07:21:43.751Z,35.40
2022-10-11T07:24:10.653Z,35.20
2022-10-11T07:26:38.665Z,34.90
2022-10-11T07:29:08.690Z,35.60
2022-10-11T07:31:37.686Z,35.70
2022-10-11T07:34:04.810Z,36.50
2022-10-11T07:36:31.849Z,36.80
2022-10-11T07:38:58.834Z,36.70
2022-10-11T07:41:25.761Z,36.80
2022-10-11T07:43:54.370Z,36.80
2022-10-11T07:46:21.299Z,36.50
2022-10-11T07:48:50.182Z,36.60
2022-10-11T07:51:20.433Z,37.00
2022-10-11T07:53:49.451Z,37.40
2022-10-11T07:56:19.266Z,38.00
2022-10-11T07:58:53.811Z,38.20
2022-10-11T08:01:21.247Z,37.70
2022-10-11T08:03:49.340Z,37.30
2022-10-11T08:06:18.644Z,37.20
2022-10-11T08:08:45.656Z,37.30
2022-10-11T08:11:30.481Z,37.30
2022-10-11T08:13:58.489Z,37.80
2022-10-11T08:16:25.472Z,37.80
2022-10-11T08:18:54.468Z,37.80
2022-10-11T08:21:21.941Z,38.10
2022-10-11T08:23:49.200Z,38.30
2022-10-11T08:26:16.187Z,38.40
2022-10-11T08:28:43.185Z,38.40
2022-10-11T08:31:13.554Z,38.60
2022-10-11T08:33:40.511Z,37.70
2022-10-11T08:36:08.656Z,37.40
2022-10-11T08:38:39.572Z,37.50
2022-10-11T08:41:24.380Z,38.50
2022-10-11T08:44:13.343Z,39.00
2022-10-11T08:46:43.951Z,39.30
2022-10-11T08:49:12.955Z,39.10
2022-10-11T08:51:52.641Z,38.80
2022-10-11T08:54:31.280Z,38.60
2022-10-11T08:56:58.261Z,38.40
2022-10-11T08:59:35.974Z,39.30
2022-10-11T09:02:22.084Z,39.70
2022-10-11T09:04:51.698Z,39.40
2022-10-11T09:07:49.685Z,40.30
2022-10-11T09:10:43.642Z,40.30
2022-10-11T09:13:35.882Z,40.00
2022-10-11T09:16:39.614Z,39.20
2022-10-11T09:19:36.517Z,39.10
2022-10-11T09:22:18.192Z,40.40
2022-10-11T09:25:13.441Z,40.10
2022-10-11T09:28:02.904Z,38.90
2022-10-11T09:30:31.327Z,38.50
2022-10-11T09:33:35.474Z,38.70
2022-10-11T09:36:12.020Z,39.20
2022-10-11T09:38:42.091Z,39.30
2022-10-11T09:41:43.920Z,38.70
2022-10-11T09:44:22.586Z,38.60
2022-10-11T09:46:51.178Z,38.50
2022-10-11T09:49:21.725Z,38.70
2022-10-11T09:51:53.612Z,38.40
2022-10-11T09:54:27.463Z,38.20
2022-10-11T09:56:54.619Z,38.00
2022-10-11T09:59:32.386Z,38.20
2022-10-11T10:02:17.070Z,38.50
2022-10-11T10:04:56.103Z,38.80
2022-10-11T10:07:23.905Z,38.50
2022-10-11T10:09:51.126Z,37.80
2022-10-11T10:12:24.021Z,38.40
2022-10-11T10:15:08.177Z,39.40
2022-10-11T10:17:36.293Z,39.40
2022-10-11T10:20:05.682Z,39.40
2022-10-11T10:22:35.503Z,38.70
2022-10-11T10:25:08.109Z,38.10
2022-10-11T10:27:35.678Z,38.40
2022-10-11T10:30:08.509Z,38.50
2022-10-11T10:32:51.179Z,39.10
2022-10-11T10:35:40.673Z,39.00
2022-10-11T10:38:15.594Z,38.80
2022-10-11T10:41:03.512Z,38.60
2022-10-11T10:43:36.710Z,37.90
2022-10-11T10:46:47.734Z,38.00
2022-10-11T10:49:53.042Z,37.80
2022-10-11T10:52:28.665Z,38.00
2022-10-11T10:55:16.511Z,38.70
2022-10-11T10:58:05.596Z,39.90
2022-10-11T11:00:50.680Z,40.00
2022-10-11T11:03:50.274Z,39.60
2022-10-11T11:06:36.613Z,39.70
2022-10-11T11:09:26.152Z,40.60
2022-10-11T11:12:18.709Z,40.80
2022-10-11T11:15:31.398Z,41.40
2022-10-11T11:18:18.111Z,41.00
2022-10-11T11:21:35.857Z,41.80
2022-10-11T11:24:17.200Z,42.50
2022-10-11T11:27:11.353Z,42.70
2022-10-11T11:29:38.217Z,41.60
2022-10-11T11:32:24.094Z,41.00
2022-10-11T11:35:02.305Z,40.50
2022-10-11T11:37:33.775Z,39.90
2022-10-11T11:40:08.440Z,39.30
2022-10-11T11:42:42.341Z,39.30
2022-10-11T11:45:18.412Z,38.90
2022-10-11T11:47:52.512Z,38.50
2022-10-11T11:50:27.923Z,37.60
2022-10-11T11:53:05.447Z,38.10
2022-10-11T11:56:03.406Z,38.10
2022-10-11T11:58:54.722Z,37.50
2022-10-11T12:01:44.781Z,37.60
2022-10-11T12:04:18.696Z,37.60
2022-10-11T12:07:15.533Z,37.40
2022-10-11T12:09:46.368Z,36.60
2022-10-11T12:12:37.559Z,37.20
2022-10-11T12:15:10.389Z,37.30
2022-10-11T12:17:58.055Z,37.50
2022-10-11T12:20:41.933Z,37.40
2022-10-11T12:23:30.564Z,37.80
2022-10-11T12:26:28.337Z,37.40
2022-10-11T12:29:28.469Z,36.90
2022-10-11T12:31:59.097Z,37.60
2022-10-11T12:37:18.850Z,37.90
2022-10-11T12:39:59.660Z,37.30
2022-10-11T12:42:29.635Z,38.10
2022-10-11T12:45:14.569Z,38.20
2022-10-11T12:48:06.773Z,37.30
2022-10-11T12:50:42.435Z,37.80
2022-10-11T12:53:25.901Z,37.40
2022-10-11T12:56:12.353Z,37.10
2022-10-11T12:58:41.736Z,37.70
2022-10-11T13:01:21.812Z,38.20
2022-10-11T13:04:03.371Z,38.70
2022-10-11T13:06:33.402Z,38.60
2022-10-11T13:09:05.268Z,38.50
2022-10-11T13:11:40.504Z,39.00
2022-10-11T13:14:11.818Z,38.90
2022-10-11T13:17:03.589Z,39.10
2022-10-11T13:19:33.200Z,38.80
2022-10-11T13:22:15.189Z,39.20
2022-10-11T13:24:42.730Z,38.80
2022-10-11T13:27:21.572Z,39.80
2022-10-11T13:29:51.142Z,40.00
2022-10-11T13:32:24.561Z,40.10
2022-10-11T13:35:02.037Z,40.30
2022-10-11T13:37:30.762Z,39.60
2022-10-11T13:39:58.424Z,38.60
2022-10-11T13:42:31.729Z,38.60
2022-10-11T13:45:00.052Z,38.20
2022-10-11T13:47:29.459Z,38.70
2022-10-11T13:50:24.270Z,38.70
2022-10-11T13:52:59.179Z,38.70
2022-10-11T13:55:30.856Z,39.00
2022-10-11T13:57:59.659Z,38.80
2022-10-11T14:00:31.821Z,38.60
2022-10-11T14:03:13.687Z,39.10
2022-10-11T14:05:52.623Z,39.20
2022-10-11T14:08:34.016Z,38.60
2022-10-11T14:11:06.023Z,37.80
2022-10-11T14:13:44.753Z,38.40
2022-10-11T14:16:12.899Z,37.70
2022-10-11T14:18:42.977Z,38.00
2022-10-11T14:21:24.939Z,38.20
2022-10-11T14:23:57.967Z,38.10
2022-10-11T14:26:27.011Z,37.90
2022-10-11T14:28:59.946Z,38.70
2022-10-11T14:31:27.885Z,38.80
2022-10-11T14:33:55.864Z,39.30
2022-10-11T14:36:23.845Z,39.40
2022-10-11T14:38:52.611Z,39.30
2022-10-11T14:41:19.937Z,39.20
2022-10-11T14:43:46.937Z,38.90
2022-10-11T14:46:25.968Z,38.40
2022-10-11T14:48:55.849Z,38.40
2022-10-11T14:51:27.664Z,38.40
2022-10-11T14:53:54.645Z,38.00
2022-10-11T14:56:22.001Z,38.10
2022-10-11T14:58:49.451Z,38.50
2022-10-11T15:01:17.394Z,38.60
2022-10-11T15:03:44.653Z,38.70
2022-10-11T15:06:19.896Z,38.60
2022-10-11T15:08:46.800Z,38.70
2022-10-11T15:11:16.197Z,38.70
2022-10-11T15:13:43.193Z,38.90
2022-10-11T15:16:13.380Z,38.90
2022-10-11T15:18:40.482Z,39.00
2022-10-11T15:21:07.860Z,38.00
2022-10-11T15:23:34.786Z,38.00
2022-10-11T15:26:01.761Z,37.70
2022-10-11T15:28:32.766Z,37.80
2022-10-11T15:31:00.749Z,37.50
2022-10-11T15:33:27.642Z,37.50
2022-10-11T15:35:54.583Z,37.50
2022-10-11T15:38:25.801Z,37.40
2022-10-11T15:40:54.218Z,37.80
2022-10-11T15:43:24.721Z,37.90
2022-10-11T15:45:52.117Z,37.70
2022-10-11T15:48:20.786Z,37.80
2022-10-11T15:50:49.392Z,37.60
2022-10-11T15:53:19.273Z,37.50
2022-10-11T15:55:52.092Z,37.60
2022-10-11T15:58:31.612Z,36.60
2022-10-11T16:01:02.020Z,36.40
2022-10-11T16:03:30.406Z,36.70
2022-10-11T16:06:02.496Z,36.60
2022-10-11T16:08:31.649Z,36.50
2022-10-11T16:10:59.294Z,36.80
2022-10-11T16:13:26.181Z,36.50
2022-10-11T16:15:53.205Z,36.20
2022-10-11T16:18:21.175Z,36.00
2022-10-11T16:20:51.178Z,35.80
2022-10-11T16:23:20.056Z,35.70
2022-10-11T16:25:47.947Z,35.30
2022-10-11T16:28:14.911Z,35.10
2022-10-11T16:30:45.510Z,34.90
2022-10-11T16:33:12.450Z,34.80
2022-10-11T16:35:42.589Z,34.90
2022-10-11T16:38:10.276Z,34.80
2022-10-11T16:40:42.190Z,35.20
2022-10-11T16:43:09.547Z,35.30
2022-10-11T16:45:36.928Z,35.30
2022-10-11T16:48:04.627Z,35.40
2022-10-11T16:50:34.473Z,35.00
2022-10-11T16:53:05.629Z,34.90
2022-10-11T16:55:32.729Z,35.10
2022-10-11T16:57:59.684Z,35.00
2022-10-11T17:00:26.696Z,34.60
2022-10-11T17:02:53.660Z,34.90
2022-10-11T17:05:20.549Z,34.90
2022-10-11T17:07:47.541Z,34.70
2022-10-11T17:10:14.421Z,34.70
2022-10-11T17:12:41.311Z,34.90
2022-10-11T17:15:14.154Z,34.90
2022-10-11T17:17:41.124Z,35.30
2022-10-11T17:20:09.773Z,35.30
2022-10-11T17:22:38.919Z,35.10
2022-10-11T17:25:07.069Z,35.20
2022-10-11T17:27:34.093Z,35.20
2022-10-11T17:30:01.079Z,35.00
2022-10-11T17:32:27.958Z,34.80
2022-10-11T17:34:55.089Z,34.50
2022-10-11T17:37:22.171Z,34.50
2022-10-11T17:39:49.120Z,34.40
2022-10-11T17:42:16.576Z,34.10
2022-10-11T17:44:43.477Z,33.90
2022-10-11T17:47:10.479Z,33.80
2022-10-11T17:49:37.621Z,33.90
2022-10-11T17:52:04.740Z,34.70
2022-10-11T17:54:31.730Z,35.20
2022-10-11T17:56:58.757Z,35.60
2022-10-11T17:59:28.882Z,35.50
2022-10-11T18:01:55.748Z,35.40
2022-10-11T18:04:26.913Z,35.20
2022-10-11T18:06:54.097Z,34.90
2022-10-11T18:09:22.221Z,34.60
2022-10-11T18:11:49.637Z,34.50
2022-10-11T18:14:24.972Z,34.50
2022-10-11T18:16:54.822Z,34.70
2022-10-11T18:19:21.771Z,34.30
2022-10-11T18:21:48.720Z,34.60
2022-10-11T18:24:16.777Z,34.80
2022-10-11T18:26:45.379Z,34.30
2022-10-11T18:29:14.257Z,34.10
2022-10-11T18:31:42.260Z,33.80
2022-10-11T18:34:13.040Z,33.20
2022-10-11T18:36:40.182Z,33.40
2022-10-11T18:39:09.576Z,33.20
2022-10-11T18:41:42.138Z,33.80
2022-10-11T18:44:14.481Z,34.00
2022-10-11T18:46:42.050Z,34.50
2022-10-11T18:49:09.226Z,34.40
2022-10-11T18:51:38.935Z,34.00
2022-10-11T18:54:08.738Z,33.90
2022-10-11T18:56:37.312Z,33.80
2022-10-11T18:59:06.002Z,33.80
2022-10-11T19:01:38.147Z,33.90
2022-10-11T19:04:07.267Z,33.60
2022-10-11T19:06:48.252Z,33.10
2022-10-11T19:09:18.030Z,33.20
2022-10-11T19:11:45.006Z,33.60
2022-10-11T19:14:15.239Z,33.40
2022-10-11T19:16:51.276Z,33.70
2022-10-11T19:19:20.338Z,33.70
2022-10-11T19:21:48.869Z,34.00
2022-10-11T19:24:17.471Z,33.50
2022-10-11T19:26:44.985Z,33.90
2022-10-11T19:29:18.832Z,34.20
2022-10-11T19:31:50.898Z,34.40
2022-10-11T19:34:18.581Z,34.10
2022-10-11T19:36:45.940Z,34.00
2022-10-11T19:39:14.670Z,34.20
2022-10-11T19:41:43.079Z,34.30
2022-10-11T19:44:13.036Z,34.10
2022-10-11T19:46:55.953Z,34.20
2022-10-11T19:49:25.322Z,34.50
2022-10-11T19:51:55.813Z,34.90
2022-10-11T19:54:23.031Z,35.00
2022-10-11T19:56:50.186Z,35.00
2022-10-11T19:59:18.885Z,35.00
2022-10-11T20:01:51.980Z,34.50
2022-10-11T20:04:51.091Z,34.90
2022-10-11T20:07:10.945Z,34.80
2022-10-11T20:09:37.938Z,34.50
2022-10-11T20:12:05.160Z,34.50
2022-10-11T20:14:32.152Z,34.30
2022-10-11T20:16:59.149Z,34.00
2022-10-11T20:19:31.071Z,33.80
2022-10-11T20:21:59.650Z,33.40
2022-10-11T20:24:29.000Z,33.80
2022-10-11T20:26:56.267Z,34.00
2022-10-11T20:29:25.406Z,34.00
2022-10-11T20:31:52.518Z,34.20
2022-10-11T20:34:19.407Z,34.60
2022-10-11T20:36:49.127Z,34.40
2022-10-11T20:39:16.954Z,34.20
2022-10-11T20:41:44.073Z,34.60
2022-10-11T20:44:13.228Z,34.70
2022-10-11T20:46:40.216Z,34.90
2022-10-11T20:49:09.983Z,35.00
2022-10-11T20:51:39.189Z,35.10
2022-10-11T20:54:06.441Z,35.30
2022-10-11T20:56:34.457Z,35.00
2022-10-11T20:59:01.596Z,34.70
2022-10-11T21:01:32.011Z,34.70
2022-10-11T21:04:00.474Z,34.50
2022-10-11T21:06:28.982Z,34.50
2022-10-11T21:08:56.685Z,34.40
2022-10-11T21:11:28.142Z,34.30
2022-10-11T21:13:56.965Z,34.40
2022-10-11T21:16:23.950Z,34.00
2022-10-11T21:18:52.104Z,34.20
2022-10-11T21:21:19.108Z,33.80
2022-10-11T21:23:46.370Z,33.70
2022-10-11T21:26:15.743Z,33.50
2022-10-11T21:28:44.269Z,33.90
2022-10-11T21:31:13.876Z,33.80
2022-10-11T21:33:42.199Z,33.80
2022-10-11T21:36:14.798Z,34.00
2022-10-11T21:38:41.932Z,34.10
2022-10-11T21:41:12.202Z,34.40
2022-10-11T21:43:39.471Z,33.90
2022-10-11T21:46:47.411Z,33.80
2022-10-11T21:49:14.197Z,34.10
2022-10-11T21:51:41.265Z,34.10
2022-10-11T21:54:08.414Z,33.70
2022-10-11T21:56:35.658Z,33.80
2022-10-11T21:59:05.373Z,34.00
2022-10-11T22:01:36.969Z,33.70
2022-10-11T22:04:05.074Z,32.90
2022-10-11T22:06:31.953Z,33.20
2022-10-11T22:08:59.421Z,33.40
2022-10-11T22:11:26.892Z,33.80
2022-10-11T22:13:53.776Z,34.30
2022-10-11T22:16:20.685Z,34.50
2022-10-11T22:18:47.669Z,34.50
2022-10-11T22:21:20.682Z,34.60
2022-10-11T22:23:51.532Z,34.50
2022-10-11T22:26:22.097Z,34.10
2022-10-11T22:28:49.641Z,34.10
2022-10-11T22:31:19.205Z,34.10
2022-10-11T22:33:46.311Z,34.00
2022-10-11T22:36:13.927Z,33.90
2022-10-11T22:38:42.411Z,34.00
2022-10-11T22:41:10.592Z,33.80
2022-10-11T22:43:37.929Z,33.40
2022-10-11T22:46:05.780Z,33.20
2022-10-11T22:48:32.680Z,33.10
2022-10-11T22:50:59.803Z,33.10
2022-10-11T22:53:26.701Z,32.80
2022-10-11T22:55:53.706Z,33.10
2022-10-11T22:58:20.616Z,33.40
2022-10-11T23:00:47.492Z,33.60
2022-10-11T23:03:16.014Z,33.60
2022-10-11T23:05:42.969Z,33.90
2022-10-11T23:08:10.248Z,34.20
2022-10-11T23:10:40.903Z,33.70
2022-10-11T23:13:07.901Z,33.80
2022-10-11T23:15:35.010Z,33.60
2022-10-11T23:18:01.931Z,33.40
2022-10-11T23:20:28.802Z,33.30
2022-10-11T23:22:55.697Z,33.10
2022-10-11T23:25:22.607Z,33.50
2022-10-11T23:27:49.523Z,33.60
2022-10-11T23:30:16.507Z,33.50
2022-10-11T23:32:43.504Z,33.00
2022-10-11T23:35:10.455Z,33.00
2022-10-11T23:37:37.601Z,32.60
2022-10-11T23:40:05.179Z,32.60
2022-10-11T23:42:32.145Z,32.60
2022-10-11T23:44:59.166Z,32.30
2022-10-11T23:47:26.076Z,32.20
2022-10-11T23:49:53.051Z,31.90
2022-10-11T23:52:19.977Z,31.80
2022-10-11T23:54:46.875Z,31.50
2022-10-11T23:57:14.054Z,31.20
2022-10-11T23:59:40.950Z,30.90
